createdAt,value
2022-11-02T00:01:56.868Z,2.30
2022-11-02T00:04:26.076Z,2.55
2022-11-02T00:07:00.303Z,2.20
2022-11-02T00:09:31.335Z,2.20
2022-11-02T00:12:00.524Z,2.75
2022-11-02T00:14:29.593Z,2.50
2022-11-02T00:16:58.911Z,2.35
2022-11-02T00:19:33.190Z,2.47
2022-11-02T00:22:02.431Z,2.67
2022-11-02T00:24:35.923Z,2.30
2022-11-02T00:27:05.112Z,2.40
2022-11-02T00:29:36.277Z,2.65
2022-11-02T00:32:05.874Z,2.15
2022-11-02T00:34:35.294Z,2.40
2022-11-02T00:37:07.003Z,2.13
2022-11-02T00:39:38.313Z,2.50
2022-11-02T00:42:13.072Z,2.58
2022-11-02T00:44:42.399Z,2.50
2022-11-02T00:47:11.706Z,2.80
2022-11-02T00:49:41.375Z,2.90
2022-11-02T00:52:11.468Z,2.80
2022-11-02T00:54:42.664Z,2.80
2022-11-02T00:57:11.907Z,2.70
2022-11-02T00:59:46.585Z,2.83
2022-11-02T01:02:18.842Z,3.10
2022-11-02T01:04:54.186Z,3.17
2022-11-02T01:07:28.435Z,3.17
2022-11-02T01:09:59.639Z,2.75
2022-11-02T01:12:28.870Z,3.20
2022-11-02T01:14:58.023Z,2.60
2022-11-02T01:17:27.460Z,2.92
2022-11-02T01:19:56.607Z,3.33
2022-11-02T01:22:27.323Z,3.60
2022-11-02T01:24:58.700Z,3.08
2022-11-02T01:27:29.072Z,2.92
2022-11-02T01:29:58.846Z,3.63
2022-11-02T01:32:30.586Z,3.75
2022-11-02T01:37:34.244Z,3.80
2022-11-02T01:40:06.121Z,3.47
2022-11-02T01:42:35.268Z,3.65
2022-11-02T01:45:04.470Z,3.33
2022-11-02T01:47:44.863Z,3.67
2022-11-02T01:50:22.728Z,3.83
2022-11-02T01:52:52.123Z,4.60
2022-11-02T01:55:28.858Z,4.80
2022-11-02T02:03:16.676Z,5.10
2022-11-02T02:05:51.562Z,5.10
2022-11-02T02:08:33.772Z,5.57
2022-11-02T02:11:04.809Z,5.43
2022-11-02T02:13:34.199Z,5.25
2022-11-02T02:16:33.501Z,4.93
2022-11-02T02:19:11.667Z,5.13
2022-11-02T02:22:00.731Z,5.82
2022-11-02T02:24:46.680Z,5.28
2022-11-02T02:27:29.018Z,5.50
2022-11-02T02:30:09.284Z,5.63
2022-11-02T02:32:51.405Z,6.20
2022-11-02T02:35:34.015Z,4.22
2022-11-02T02:38:05.405Z,4.63
2022-11-02T02:43:08.899Z,4.53
2022-11-02T02:45:54.963Z,4.57
2022-11-02T02:48:26.719Z,4.82
2022-11-02T02:51:05.915Z,4.63
2022-11-02T02:53:39.314Z,4.68
2022-11-02T02:56:11.352Z,5.10
2022-11-02T02:58:46.487Z,5.57
2022-11-02T03:01:24.331Z,4.82
2022-11-02T03:03:53.702Z,4.80
2022-11-02T03:06:31.881Z,5.78
2022-11-02T03:09:11.663Z,6.03
2022-11-02T03:11:52.884Z,6.78
2022-11-02T03:14:34.824Z,7.22
2022-11-02T03:19:57.065Z,8.55
2022-11-02T03:22:36.231Z,7.70
2022-11-02T03:25:20.769Z,9.55
2022-11-02T03:27:57.232Z,7.72
2022-11-02T03:30:30.284Z,7.40
2022-11-02T03:35:53.300Z,6.82
2022-11-02T03:38:26.781Z,7.00
2022-11-02T03:40:58.654Z,7.10
2022-11-02T03:43:28.805Z,5.95
2022-11-02T03:46:03.271Z,5.75
2022-11-02T03:48:42.265Z,6.43
2022-11-02T03:51:17.203Z,6.05
2022-11-02T03:53:56.711Z,4.82
2022-11-02T03:56:31.547Z,3.30
2022-11-02T03:59:01.059Z,3.80
2022-11-02T04:01:32.737Z,4.72
2022-11-02T04:04:06.205Z,3.22
2022-11-02T04:06:37.280Z,4.72
2022-11-02T04:09:13.224Z,3.78
2022-11-02T04:11:56.291Z,4.00
2022-11-02T04:14:38.483Z,3.22
2022-11-02T04:20:03.011Z,3.28
2022-11-02T04:22:48.900Z,4.10
2022-11-02T04:25:21.252Z,3.30
2022-11-02T04:28:10.403Z,3.63
2022-11-02T04:33:28.668Z,3.72
2022-11-02T04:36:08.016Z,4.80
2022-11-02T04:38:42.667Z,4.38
2022-11-02T04:41:46.911Z,5.10
2022-11-02T04:44:24.928Z,6.43
2022-11-02T04:47:22.645Z,6.60
2022-11-02T04:49:52.730Z,7.60
2022-11-02T04:52:29.722Z,8.95
2022-11-02T04:55:00.408Z,9.73
2022-11-02T04:57:35.039Z,9.00
2022-11-02T05:00:11.944Z,7.50
2022-11-02T05:05:16.870Z,6.90
2022-11-02T05:07:47.942Z,6.07
2022-11-02T05:10:17.413Z,4.95
2022-11-02T05:12:48.398Z,7.30
2022-11-02T05:15:17.935Z,9.10
2022-11-02T05:17:50.514Z,8.20
2022-11-02T05:20:20.636Z,8.05
2022-11-02T05:22:59.621Z,8.90
2022-11-02T05:25:29.127Z,6.60
2022-11-02T05:27:59.055Z,7.18
2022-11-02T05:30:28.791Z,5.75
2022-11-02T05:32:59.277Z,5.00
2022-11-02T05:35:29.703Z,5.13
2022-11-02T05:38:06.886Z,6.43
2022-11-02T05:40:37.601Z,4.50
2022-11-02T05:43:07.536Z,5.75
2022-11-02T05:45:37.998Z,5.63
2022-11-02T05:48:08.449Z,4.43
2022-11-02T05:50:37.589Z,4.47
2022-11-02T05:53:08.928Z,5.07
2022-11-02T05:55:38.106Z,3.28
2022-11-02T05:58:07.311Z,5.80
2022-11-02T06:00:36.640Z,6.50
2022-11-02T06:03:06.197Z,7.28
2022-11-02T06:05:36.096Z,4.25
2022-11-02T06:08:05.329Z,2.80
2022-11-02T06:10:36.785Z,5.60
2022-11-02T06:13:06.650Z,6.00
2022-11-02T06:15:36.520Z,5.05
2022-11-02T06:18:07.502Z,4.93
2022-11-02T06:20:43.001Z,6.50
2022-11-02T06:23:14.048Z,5.60
2022-11-02T06:25:45.201Z,5.22
2022-11-02T06:28:14.734Z,6.13
2022-11-02T06:30:45.004Z,6.75
2022-11-02T06:33:14.588Z,4.43
2022-11-02T06:35:47.789Z,5.70
2022-11-02T06:38:17.286Z,6.60
2022-11-02T06:43:30.350Z,6.15
2022-11-02T06:46:00.225Z,7.35
2022-11-02T06:48:34.629Z,6.25
2022-11-02T06:51:05.836Z,6.00
2022-11-02T06:53:35.534Z,7.40
2022-11-02T06:56:06.877Z,7.72
2022-11-02T06:58:36.072Z,5.80
2022-11-02T07:01:08.585Z,7.60
2022-11-02T07:03:38.615Z,6.90
2022-11-02T07:06:13.932Z,8.27
2022-11-02T07:08:48.806Z,7.80
2022-11-02T07:11:19.917Z,8.65
2022-11-02T07:13:49.567Z,8.45
2022-11-02T07:16:18.600Z,7.32
2022-11-02T07:18:47.888Z,6.70
2022-11-02T07:21:17.108Z,8.13
2022-11-02T07:23:46.296Z,7.55
2022-11-02T07:26:15.445Z,5.35
2022-11-02T07:28:47.562Z,6.75
2022-11-02T07:31:16.709Z,8.15
2022-11-02T07:33:45.779Z,7.20
2022-11-02T07:36:15.452Z,7.70
2022-11-02T07:38:44.691Z,7.07
2022-11-02T07:41:24.095Z,7.75
2022-11-02T07:43:55.483Z,7.70
2022-11-02T07:46:33.561Z,7.43
2022-11-02T07:49:02.944Z,7.13
2022-11-02T07:51:32.053Z,6.07
2022-11-02T07:54:02.386Z,6.43
2022-11-02T07:56:31.435Z,5.68
2022-11-02T07:59:07.658Z,6.30
2022-11-02T08:01:36.929Z,6.10
2022-11-02T08:04:06.534Z,7.05
2022-11-02T08:06:37.588Z,6.72
2022-11-02T08:09:06.797Z,7.20
2022-11-02T08:11:35.897Z,6.07
2022-11-02T08:14:07.207Z,7.85
2022-11-02T08:16:36.435Z,7.60
2022-11-02T08:19:05.599Z,7.78
2022-11-02T08:21:34.953Z,7.78
2022-11-02T08:24:04.133Z,8.45
2022-11-02T08:26:34.289Z,8.95
2022-11-02T08:29:04.099Z,9.20
2022-11-02T08:31:35.269Z,7.93
2022-11-02T08:34:04.462Z,8.07
2022-11-02T08:36:33.656Z,9.52
2022-11-02T08:39:02.770Z,8.07
2022-11-02T08:41:32.069Z,6.07
2022-11-02T08:44:01.488Z,8.07
2022-11-02T08:46:31.890Z,9.40
2022-11-02T08:49:03.458Z,7.75
2022-11-02T08:51:32.703Z,8.52
2022-11-02T08:54:01.880Z,8.75
2022-11-02T08:56:31.298Z,8.20
2022-11-02T08:59:00.413Z,9.57
2022-11-02T09:01:29.740Z,8.15
2022-11-02T09:03:59.036Z,6.88
2022-11-02T09:06:30.569Z,7.30
2022-11-02T09:08:59.724Z,10.00
2022-11-02T09:11:34.455Z,9.05
2022-11-02T09:14:04.268Z,8.60
2022-11-02T09:16:36.341Z,11.00
2022-11-02T09:21:57.136Z,10.10
2022-11-02T09:24:26.473Z,10.57
2022-11-02T09:26:55.645Z,10.18
2022-11-02T09:32:14.053Z,6.43
2022-11-02T09:34:43.152Z,6.75
2022-11-02T09:37:14.237Z,5.97
2022-11-02T09:39:43.442Z,8.25
2022-11-02T09:42:22.571Z,8.20
2022-11-02T09:44:58.697Z,7.05
2022-11-02T09:50:22.826Z,6.03
2022-11-02T09:52:58.616Z,5.70
2022-11-02T09:55:32.320Z,5.68
2022-11-02T09:58:05.865Z,5.78
2022-11-02T10:00:40.189Z,6.15
2022-11-02T10:03:21.487Z,6.22
2022-11-02T10:05:58.639Z,5.10
2022-11-02T10:08:45.067Z,6.40
2022-11-02T10:11:27.613Z,5.30
2022-11-02T10:14:07.468Z,7.63
2022-11-02T10:16:39.824Z,6.72
2022-11-02T10:19:16.379Z,5.20
2022-11-02T10:21:50.004Z,6.00
2022-11-02T10:24:31.559Z,4.60
2022-11-02T10:27:03.324Z,3.85
2022-11-02T10:29:45.109Z,5.00
2022-11-02T10:32:15.611Z,4.95
2022-11-02T10:34:58.728Z,4.95
2022-11-02T10:37:52.399Z,4.27
2022-11-02T10:40:38.411Z,3.88
2022-11-02T10:43:20.598Z,6.55
2022-11-02T10:46:11.129Z,6.32
2022-11-02T10:48:53.131Z,6.22
2022-11-02T10:51:29.388Z,4.18
2022-11-02T10:53:58.951Z,3.05
2022-11-02T10:56:33.823Z,5.22
2022-11-02T10:59:10.992Z,4.05
2022-11-02T11:01:48.189Z,5.75
2022-11-02T11:04:27.612Z,5.25
2022-11-02T11:06:58.296Z,3.95
2022-11-02T11:09:30.425Z,5.40
2022-11-02T11:20:40.040Z,5.25
2022-11-02T11:23:12.040Z,4.25
2022-11-02T11:25:42.850Z,5.45
2022-11-02T11:28:33.029Z,6.50
2022-11-02T11:31:13.386Z,5.32
2022-11-02T11:33:53.206Z,5.63
2022-11-02T11:39:28.012Z,6.78
2022-11-02T11:44:28.517Z,5.00
2022-11-02T11:47:00.207Z,6.32
2022-11-02T11:50:03.027Z,6.32
2022-11-02T11:52:31.164Z,5.70
2022-11-02T11:55:24.700Z,6.57
2022-11-02T11:58:15.347Z,6.35
2022-11-02T12:00:46.644Z,7.10
2022-11-02T12:03:16.351Z,6.78
2022-11-02T12:06:04.339Z,6.13
2022-11-02T12:08:44.610Z,6.13
2022-11-02T12:11:28.758Z,4.97
2022-11-02T12:14:12.116Z,6.18
2022-11-02T12:17:12.055Z,5.10
2022-11-02T12:19:58.439Z,5.68
2022-11-02T12:22:40.231Z,6.05
2022-11-02T12:25:21.783Z,4.95
2022-11-02T12:27:59.849Z,5.55
2022-11-02T12:30:36.100Z,5.30
2022-11-02T12:33:25.754Z,5.43
2022-11-02T12:36:14.399Z,5.95
2022-11-02T12:38:58.714Z,5.72
2022-11-02T12:41:46.461Z,5.65
2022-11-02T12:44:39.397Z,7.10
2022-11-02T12:47:22.730Z,6.07
2022-11-02T12:55:59.414Z,4.82
2022-11-02T12:58:31.469Z,3.65
2022-11-02T13:03:45.006Z,2.97
2022-11-02T13:06:23.748Z,4.15
2022-11-02T13:08:57.062Z,4.72
2022-11-02T13:11:34.107Z,4.15
2022-11-02T13:14:07.019Z,3.83
2022-11-02T13:16:42.446Z,4.95
2022-11-02T13:19:20.196Z,4.95
2022-11-02T13:21:55.028Z,5.15
2022-11-02T13:24:31.769Z,4.32
2022-11-02T13:27:21.787Z,3.50
2022-11-02T13:30:05.275Z,2.80
2022-11-02T13:32:40.481Z,3.80
2022-11-02T13:35:20.534Z,3.58
2022-11-02T13:37:55.568Z,3.83
2022-11-02T13:40:35.912Z,4.53
2022-11-02T13:43:32.775Z,5.15
2022-11-02T13:46:25.524Z,3.63
2022-11-02T13:49:11.203Z,3.53
2022-11-02T13:51:45.737Z,2.10
2022-11-02T13:54:18.514Z,2.08
2022-11-02T13:56:55.721Z,3.47
2022-11-02T13:59:31.549Z,3.92
2022-11-02T14:02:04.814Z,4.40
2022-11-02T14:04:41.264Z,4.15
2022-11-02T14:07:22.334Z,3.70
2022-11-02T14:09:52.401Z,4.70
2022-11-02T14:12:41.743Z,3.83
2022-11-02T14:15:49.361Z,4.57
2022-11-02T14:18:32.043Z,4.03
2022-11-02T14:21:22.234Z,4.57
2022-11-02T14:23:51.451Z,4.68
2022-11-02T14:26:55.404Z,4.60
2022-11-02T14:29:50.981Z,5.05
2022-11-02T14:32:30.544Z,3.45
2022-11-02T14:35:15.615Z,4.47
2022-11-02T14:38:12.126Z,5.22
2022-11-02T14:40:53.783Z,5.07
2022-11-02T14:43:53.496Z,5.65
2022-11-02T14:46:38.257Z,3.33
2022-11-02T14:49:18.054Z,4.30
2022-11-02T14:52:03.690Z,3.58
2022-11-02T14:54:37.266Z,5.43
2022-11-02T14:57:20.614Z,6.22
2022-11-02T14:59:52.642Z,6.10
2022-11-02T15:02:36.075Z,5.13
2022-11-02T15:05:25.332Z,4.25
2022-11-02T15:08:01.687Z,4.20
2022-11-02T15:10:43.683Z,3.88
2022-11-02T15:16:39.029Z,5.18
2022-11-02T15:19:38.498Z,4.65
2022-11-02T15:22:34.491Z,4.53
2022-11-02T15:25:13.726Z,5.03
2022-11-02T15:27:45.585Z,4.97
2022-11-02T15:30:27.979Z,6.07
2022-11-02T15:33:08.411Z,3.60
2022-11-02T15:35:40.460Z,4.63
2022-11-02T15:38:19.176Z,4.88
2022-11-02T15:41:18.066Z,5.55
2022-11-02T15:44:05.239Z,4.18
2022-11-02T15:46:47.471Z,3.40
2022-11-02T15:49:35.921Z,4.78
2022-11-02T15:52:14.392Z,5.05
2022-11-02T15:54:57.566Z,5.03
2022-11-02T15:57:41.380Z,5.20
2022-11-02T16:00:21.275Z,3.60
2022-11-02T16:02:53.166Z,4.25
2022-11-02T16:05:30.097Z,5.78
2022-11-02T16:08:15.885Z,3.38
2022-11-02T16:10:45.438Z,5.32
2022-11-02T16:13:20.237Z,3.95
2022-11-02T16:15:50.802Z,4.35
2022-11-02T16:18:25.651Z,3.92
2022-11-02T16:20:59.179Z,3.88
2022-11-02T16:23:31.049Z,5.82
2022-11-02T16:28:38.959Z,4.32
2022-11-02T16:31:19.802Z,5.10
2022-11-02T16:33:51.860Z,5.10
2022-11-02T16:36:30.699Z,4.70
2022-11-02T16:41:31.668Z,2.92
2022-11-02T16:44:12.573Z,2.85
2022-11-02T16:46:50.813Z,4.10
2022-11-02T16:49:26.790Z,5.10
2022-11-02T16:51:59.038Z,2.97
2022-11-02T16:54:31.733Z,5.10
2022-11-02T16:57:11.675Z,4.30
2022-11-02T16:59:55.358Z,3.22
2022-11-02T17:02:34.324Z,3.90
2022-11-02T17:05:06.407Z,4.15
2022-11-02T17:07:41.045Z,4.00
2022-11-02T17:10:20.786Z,3.90
2022-11-02T17:12:51.697Z,4.40
2022-11-02T17:15:25.898Z,4.18
2022-11-02T17:18:18.695Z,3.42
2022-11-02T17:20:48.276Z,2.50
2022-11-02T17:23:33.311Z,3.30
2022-11-02T17:26:34.699Z,3.78
2022-11-02T17:29:35.861Z,3.58
2022-11-02T17:32:09.089Z,3.90
2022-11-02T17:34:38.470Z,3.40
2022-11-02T17:37:08.553Z,2.33
2022-11-02T17:39:39.041Z,4.00
2022-11-02T17:42:23.569Z,3.70
2022-11-02T17:44:52.840Z,3.65
2022-11-02T17:47:23.903Z,4.07
2022-11-02T17:49:53.210Z,4.00
2022-11-02T17:52:22.550Z,4.13
2022-11-02T17:54:52.038Z,3.90
2022-11-02T17:57:21.245Z,3.60
2022-11-02T17:59:51.938Z,3.60
2022-11-02T18:02:21.829Z,3.95
2022-11-02T18:04:53.245Z,3.67
2022-11-02T18:07:22.457Z,3.45
2022-11-02T18:09:54.236Z,2.75
2022-11-02T18:14:52.640Z,2.85
2022-11-02T18:17:23.012Z,2.97
2022-11-02T18:19:54.660Z,3.20
2022-11-02T18:22:24.002Z,3.75
2022-11-02T18:24:53.076Z,2.75
2022-11-02T18:27:24.958Z,3.00
2022-11-02T18:29:57.502Z,3.72
2022-11-02T18:32:26.753Z,3.55
2022-11-02T18:34:58.112Z,2.97
2022-11-02T18:37:28.345Z,3.58
2022-11-02T18:40:03.077Z,2.78
2022-11-02T18:42:33.386Z,3.83
2022-11-02T18:45:02.773Z,4.40
2022-11-02T18:47:37.224Z,4.00
2022-11-02T18:50:10.023Z,3.97
2022-11-02T18:52:39.901Z,3.25
2022-11-02T18:55:10.788Z,2.35
2022-11-02T18:57:40.043Z,2.37
2022-11-02T19:00:12.081Z,2.28
2022-11-02T19:02:41.629Z,1.73
2022-11-02T19:05:30.561Z,2.92
2022-11-02T19:08:14.600Z,2.45
2022-11-02T19:10:45.679Z,1.98
2022-11-02T19:13:15.094Z,2.90
2022-11-02T19:15:49.286Z,2.92
2022-11-02T19:18:18.610Z,1.90
2022-11-02T19:20:50.278Z,3.25
2022-11-02T19:23:22.207Z,2.15
2022-11-02T19:26:03.071Z,2.30
2022-11-02T19:28:32.485Z,2.50
2022-11-02T19:31:05.622Z,2.92
2022-11-02T19:33:34.860Z,1.90
2022-11-02T19:36:07.006Z,2.70
2022-11-02T19:38:39.062Z,2.17
2022-11-02T19:41:16.753Z,2.00
2022-11-02T19:43:51.468Z,2.63
2022-11-02T19:48:58.572Z,1.92
2022-11-02T19:51:33.638Z,2.17
2022-11-02T19:54:04.374Z,1.60
2022-11-02T19:56:40.239Z,2.58
2022-11-02T19:59:27.534Z,2.05
2022-11-02T20:01:56.742Z,2.38
2022-11-02T20:04:26.029Z,1.73
2022-11-02T20:06:57.929Z,1.48
2022-11-02T20:09:27.206Z,2.38
2022-11-02T20:11:56.534Z,2.90
2022-11-02T20:14:33.905Z,2.70
2022-11-02T20:17:29.710Z,2.63
2022-11-02T20:19:58.178Z,2.42
2022-11-02T20:22:29.276Z,2.15
2022-11-02T20:25:00.174Z,2.80
2022-11-02T20:27:30.070Z,2.47
2022-11-02T20:29:59.337Z,2.35
2022-11-02T20:32:28.610Z,2.55
2022-11-02T20:34:57.779Z,1.92
2022-11-02T20:37:33.968Z,1.60
2022-11-02T20:40:03.463Z,1.58
2022-11-02T20:42:33.344Z,1.83
2022-11-02T20:45:09.181Z,0.77
2022-11-02T20:47:39.045Z,2.25
2022-11-02T20:50:12.866Z,1.35
2022-11-02T20:52:48.615Z,1.15
2022-11-02T20:55:18.062Z,2.10
2022-11-02T20:57:52.754Z,1.50
2022-11-02T21:00:22.596Z,1.65
2022-11-02T21:02:51.824Z,2.00
2022-11-02T21:05:20.926Z,2.30
2022-11-02T21:07:53.117Z,1.88
2022-11-02T21:13:04.250Z,2.20
2022-11-02T21:15:33.776Z,2.08
2022-11-02T21:18:03.608Z,2.17
2022-11-02T21:20:34.752Z,2.28
2022-11-02T21:23:11.588Z,2.15
2022-11-02T21:25:40.730Z,2.30
2022-11-02T21:28:09.836Z,2.78
2022-11-02T21:30:49.513Z,1.92
2022-11-02T21:33:18.653Z,2.47
2022-11-02T21:35:49.801Z,2.22
2022-11-02T21:38:21.084Z,2.10
2022-11-02T21:40:55.627Z,2.50
2022-11-02T21:43:24.813Z,2.30
2022-11-02T21:46:04.114Z,2.20
2022-11-02T21:48:34.903Z,1.70
2022-11-02T21:51:07.021Z,1.75
2022-11-02T21:53:40.892Z,1.77
2022-11-02T21:56:19.125Z,1.58
2022-11-02T21:58:49.260Z,2.25
2022-11-02T22:01:33.617Z,1.20
2022-11-02T22:04:03.361Z,1.38
2022-11-02T22:06:32.722Z,1.42
2022-11-02T22:09:04.021Z,1.52
2022-11-02T22:11:33.177Z,1.30
2022-11-02T22:14:01.043Z,1.90
2022-11-02T22:16:34.263Z,2.03
2022-11-02T22:19:05.279Z,1.25
2022-11-02T22:21:41.945Z,1.50
2022-11-02T22:24:14.031Z,1.75
2022-11-02T22:26:43.645Z,2.20
2022-11-02T22:29:12.919Z,1.75
2022-11-02T22:31:42.578Z,2.30
2022-11-02T22:34:13.481Z,1.58
2022-11-02T22:36:44.512Z,1.55
2022-11-02T22:39:14.607Z,1.58
2022-11-02T22:41:44.981Z,1.15
2022-11-02T22:44:16.203Z,1.65
2022-11-02T22:46:48.569Z,1.20
2022-11-02T22:49:19.079Z,1.23
2022-11-02T22:51:50.156Z,1.77
2022-11-02T22:54:32.044Z,1.70
2022-11-02T22:57:01.353Z,1.80
2022-11-02T22:59:30.627Z,1.63
2022-11-02T23:01:59.970Z,1.60
2022-11-02T23:04:29.360Z,1.60
2022-11-02T23:06:58.865Z,1.25
2022-11-02T23:09:30.064Z,1.17
2022-11-02T23:11:57.268Z,1.23
2022-11-02T23:14:32.290Z,1.67
2022-11-02T23:17:01.744Z,1.10
2022-11-02T23:19:29.606Z,1.17
2022-11-02T23:22:19.175Z,1.20
2022-11-02T23:25:04.784Z,1.50
2022-11-02T23:27:54.967Z,1.13
2022-11-02T23:30:37.439Z,1.70
2022-11-02T23:33:06.924Z,1.45
2022-11-02T23:35:49.094Z,1.30
2022-11-02T23:40:49.104Z,0.73
2022-11-02T23:43:18.327Z,1.58
2022-11-02T23:45:47.611Z,1.38
2022-11-02T23:50:58.727Z,1.20
2022-11-02T23:56:29.218Z,1.40
2022-11-02T23:59:07.885Z,1.20
